createdAt,value
2022-09-10T00:01:47.533Z,15.34
2022-09-10T00:04:16.160Z,15.35
2022-09-10T00:06:43.430Z,15.37
2022-09-10T00:09:11.327Z,15.37
2022-09-10T00:11:40.561Z,15.33
2022-09-10T00:14:09.855Z,15.30
2022-09-10T00:16:36.415Z,15.28
2022-09-10T00:19:03.089Z,15.30
2022-09-10T00:21:30.162Z,15.28
2022-09-10T00:23:57.520Z,15.28
2022-09-10T00:26:25.984Z,15.28
2022-09-10T00:28:56.099Z,15.29
2022-09-10T00:31:23.579Z,15.31
2022-09-10T00:33:50.440Z,15.26
2022-09-10T00:36:19.191Z,15.32
2022-09-10T00:38:46.258Z,15.33
2022-09-10T00:41:13.298Z,15.35
2022-09-10T00:43:48.767Z,15.35
2022-09-10T00:46:24.670Z,15.34
2022-09-10T00:48:52.344Z,15.33
2022-09-10T00:51:20.019Z,15.20
2022-09-10T00:53:46.661Z,15.39
2022-09-10T00:56:13.470Z,15.38
2022-09-10T00:58:41.303Z,15.42
2022-09-10T01:01:07.847Z,15.42
2022-09-10T01:03:36.095Z,15.43
2022-09-10T01:06:02.969Z,15.40
2022-09-10T01:08:29.549Z,15.46
2022-09-10T01:11:07.144Z,15.48
2022-09-10T01:13:43.117Z,15.48
2022-09-10T01:16:18.078Z,15.51
2022-09-10T01:18:57.005Z,15.54
2022-09-10T01:21:31.979Z,15.55
2022-09-10T01:24:23.449Z,15.55
2022-09-10T01:27:29.096Z,15.56
2022-09-10T01:30:02.681Z,15.56
2022-09-10T01:32:36.843Z,15.50
2022-09-10T01:35:12.674Z,15.60
2022-09-10T01:37:42.616Z,15.62
2022-09-10T01:40:10.365Z,15.64
2022-09-10T01:42:38.842Z,15.65
2022-09-10T01:45:12.282Z,15.63
2022-09-10T01:47:58.762Z,15.58
2022-09-10T01:50:33.793Z,15.62
2022-09-10T01:53:14.393Z,15.63
2022-09-10T01:55:51.358Z,15.63
2022-09-10T01:58:25.206Z,15.65
2022-09-10T02:01:13.612Z,15.65
2022-09-10T02:03:44.120Z,15.56
2022-09-10T02:06:16.046Z,15.61
2022-09-10T02:08:46.881Z,15.52
2022-09-10T02:11:13.466Z,15.62
2022-09-10T02:13:44.489Z,15.62
2022-09-10T02:16:23.616Z,15.64
2022-09-10T02:18:50.682Z,15.67
2022-09-10T02:21:17.605Z,15.67
2022-09-10T02:23:47.805Z,15.70
2022-09-10T02:26:14.838Z,15.66
2022-09-10T02:28:42.193Z,15.62
2022-09-10T02:31:09.257Z,15.60
2022-09-10T02:33:37.218Z,15.60
2022-09-10T02:36:04.351Z,15.59
2022-09-10T02:38:32.830Z,15.59
2022-09-10T02:40:59.398Z,15.60
2022-09-10T02:43:26.270Z,15.60
2022-09-10T02:45:56.445Z,15.59
2022-09-10T02:48:23.131Z,15.61
2022-09-10T02:50:51.352Z,15.61
2022-09-10T02:53:17.992Z,15.51
2022-09-10T02:55:44.981Z,15.63
2022-09-10T02:58:11.651Z,15.56
2022-09-10T03:00:38.227Z,15.63
2022-09-10T03:03:05.427Z,15.61
2022-09-10T03:05:32.228Z,15.61
2022-09-10T03:08:00.161Z,15.62
2022-09-10T03:10:27.908Z,15.51
2022-09-10T03:12:54.400Z,15.63
2022-09-10T03:15:20.927Z,15.62
2022-09-10T03:17:47.435Z,15.49
2022-09-10T03:20:14.122Z,15.55
2022-09-10T03:22:40.699Z,15.63
2022-09-10T03:25:09.530Z,15.63
2022-09-10T03:27:36.253Z,15.63
2022-09-10T03:30:03.329Z,15.64
2022-09-10T03:32:31.342Z,15.68
2022-09-10T03:34:58.066Z,15.61
2022-09-10T03:37:24.673Z,15.64
2022-09-10T03:39:51.520Z,15.63
2022-09-10T03:42:20.287Z,15.52
2022-09-10T03:44:46.831Z,15.60
2022-09-10T03:47:13.359Z,15.55
2022-09-10T03:49:39.933Z,15.61
2022-09-10T03:52:07.205Z,15.63
2022-09-10T03:54:36.490Z,15.61
2022-09-10T03:57:03.722Z,15.45
2022-09-10T03:59:32.810Z,15.52
2022-09-10T04:02:01.558Z,15.54
2022-09-10T04:04:28.482Z,15.53
2022-09-10T04:06:55.185Z,15.34
2022-09-10T04:09:21.729Z,15.53
2022-09-10T04:11:48.251Z,15.53
2022-09-10T04:14:14.818Z,15.27
2022-09-10T04:16:43.865Z,15.56
2022-09-10T04:19:13.493Z,15.53
2022-09-10T04:21:40.006Z,15.53
2022-09-10T04:24:06.688Z,15.44
2022-09-10T04:26:33.597Z,15.52
2022-09-10T04:29:00.175Z,15.54
2022-09-10T04:31:26.783Z,15.55
2022-09-10T04:33:58.817Z,15.54
2022-09-10T04:36:26.058Z,15.55
2022-09-10T04:38:53.031Z,15.51
2022-09-10T04:41:19.719Z,15.48
2022-09-10T04:43:47.826Z,15.00
2022-09-10T04:46:15.734Z,15.37
2022-09-10T04:48:42.991Z,15.37
2022-09-10T04:51:16.787Z,15.41
2022-09-10T04:53:46.514Z,15.35
2022-09-10T04:56:16.928Z,15.42
2022-09-10T04:58:43.770Z,15.41
2022-09-10T05:01:10.706Z,15.25
2022-09-10T05:03:38.127Z,15.41
2022-09-10T05:06:06.493Z,15.41
2022-09-10T05:08:35.171Z,15.42
2022-09-10T05:11:01.753Z,15.45
2022-09-10T05:13:29.351Z,15.45
2022-09-10T05:15:55.855Z,15.45
2022-09-10T05:18:22.494Z,15.43
2022-09-10T05:20:49.256Z,15.38
2022-09-10T05:23:15.786Z,15.49
2022-09-10T05:25:45.183Z,15.46
2022-09-10T05:28:11.892Z,15.51
2022-09-10T05:30:38.389Z,15.53
2022-09-10T05:33:05.147Z,15.55
2022-09-10T05:35:33.758Z,15.50
2022-09-10T05:38:00.765Z,15.62
2022-09-10T05:40:28.471Z,15.67
2022-09-10T05:42:56.918Z,15.72
2022-09-10T05:45:23.951Z,15.74
2022-09-10T05:47:50.968Z,15.77
2022-09-10T05:50:21.498Z,15.67
2022-09-10T05:52:49.022Z,15.70
2022-09-10T05:55:15.586Z,15.89
2022-09-10T05:57:42.200Z,15.92
2022-09-10T06:00:14.241Z,15.89
2022-09-10T06:02:40.946Z,15.97
2022-09-10T06:05:17.409Z,15.99
2022-09-10T06:07:44.020Z,16.03
2022-09-10T06:10:10.645Z,16.04
2022-09-10T06:12:45.829Z,16.03
2022-09-10T06:15:14.618Z,16.12
2022-09-10T06:17:41.287Z,16.15
2022-09-10T06:20:08.771Z,16.13
2022-09-10T06:22:39.129Z,16.23
2022-09-10T06:25:06.513Z,15.88
2022-09-10T06:27:34.051Z,16.38
2022-09-10T06:30:02.358Z,16.47
2022-09-10T06:32:31.599Z,16.51
2022-09-10T06:35:00.192Z,16.49
2022-09-10T06:37:27.624Z,16.74
2022-09-10T06:39:55.439Z,16.78
2022-09-10T06:42:22.033Z,16.69
2022-09-10T06:45:07.983Z,16.97
2022-09-10T06:50:51.391Z,17.03
2022-09-10T06:53:18.106Z,17.03
2022-09-10T06:55:45.657Z,17.40
2022-09-10T06:58:12.871Z,17.53
2022-09-10T07:00:39.622Z,17.53
2022-09-10T07:03:08.638Z,17.34
2022-09-10T07:05:35.482Z,17.76
2022-09-10T07:08:03.629Z,17.57
2022-09-10T07:10:30.321Z,17.68
2022-09-10T07:12:57.341Z,17.67
2022-09-10T07:15:23.890Z,17.62
2022-09-10T07:17:50.715Z,17.62
2022-09-10T07:20:18.806Z,17.51
2022-09-10T07:22:47.089Z,17.71
2022-09-10T07:25:14.903Z,17.71
2022-09-10T07:27:52.777Z,17.39
2022-09-10T07:30:19.864Z,17.58
2022-09-10T07:32:46.926Z,17.52
2022-09-10T07:35:16.449Z,17.67
2022-09-10T07:37:46.318Z,17.72
2022-09-10T07:40:13.725Z,17.69
2022-09-10T07:42:40.298Z,17.75
2022-09-10T07:45:09.547Z,17.75
2022-09-10T07:47:36.112Z,17.69
2022-09-10T07:50:02.795Z,17.78
2022-09-10T07:52:29.303Z,17.78
2022-09-10T07:54:57.582Z,17.76
2022-09-10T07:57:24.321Z,17.78
2022-09-10T07:59:50.964Z,17.83
2022-09-10T08:02:21.333Z,17.87
2022-09-10T08:04:54.810Z,17.90
2022-09-10T08:07:21.927Z,17.93
2022-09-10T08:09:48.510Z,18.04
2022-09-10T08:12:18.950Z,18.03
2022-09-10T08:14:46.644Z,18.18
2022-09-10T08:17:14.506Z,18.10
2022-09-10T08:19:43.801Z,18.13
2022-09-10T08:22:13.585Z,18.17
2022-09-10T08:24:45.054Z,18.37
2022-09-10T08:27:11.695Z,18.51
2022-09-10T08:29:39.704Z,18.58
2022-09-10T08:32:08.873Z,18.82
2022-09-10T08:34:35.472Z,18.91
2022-09-10T08:37:06.678Z,19.01
2022-09-10T08:39:35.187Z,19.18
2022-09-10T08:42:06.918Z,19.07
2022-09-10T08:44:46.978Z,19.18
2022-09-10T08:47:21.846Z,19.26
2022-09-10T08:49:54.412Z,19.59
2022-09-10T08:52:27.741Z,19.62
2022-09-10T08:55:02.098Z,19.52
2022-09-10T08:57:34.985Z,19.70
2022-09-10T09:00:07.381Z,19.74
2022-09-10T09:02:49.173Z,19.90
2022-09-10T09:05:21.006Z,19.84
2022-09-10T09:07:51.061Z,19.92
2022-09-10T09:10:26.674Z,19.92
2022-09-10T09:13:26.243Z,19.77
2022-09-10T09:16:12.152Z,19.72
2022-09-10T09:18:54.831Z,19.76
2022-09-10T09:21:30.410Z,19.80
2022-09-10T09:24:12.685Z,19.67
2022-09-10T09:26:45.427Z,19.87
2022-09-10T09:29:15.652Z,19.77
2022-09-10T09:31:47.205Z,19.77
2022-09-10T09:34:18.927Z,19.97
2022-09-10T09:36:51.498Z,19.84
2022-09-10T09:39:25.850Z,19.76
2022-09-10T09:42:02.142Z,19.74
2022-09-10T09:44:33.210Z,19.74
2022-09-10T09:47:01.485Z,19.64
2022-09-10T09:49:28.975Z,19.78
2022-09-10T09:51:57.145Z,19.84
2022-09-10T09:55:03.210Z,20.03
2022-09-10T09:57:16.223Z,19.90
2022-09-10T09:59:42.855Z,19.83
2022-09-10T10:02:13.456Z,19.88
2022-09-10T10:04:44.667Z,19.92
2022-09-10T10:07:11.302Z,20.09
2022-09-10T10:09:42.807Z,20.06
2022-09-10T10:12:19.340Z,20.12
2022-09-10T10:14:45.945Z,20.01
2022-09-10T10:17:38.252Z,20.23
2022-09-10T10:20:11.893Z,20.18
2022-09-10T10:22:40.890Z,20.31
2022-09-10T10:25:35.905Z,20.54
2022-09-10T10:28:02.850Z,20.46
2022-09-10T10:30:30.486Z,20.43
2022-09-10T10:32:59.775Z,20.40
2022-09-10T10:35:44.374Z,20.25
2022-09-10T10:38:29.803Z,20.13
2022-09-10T10:41:37.785Z,20.13
2022-09-10T10:44:29.175Z,20.14
2022-09-10T10:47:11.972Z,19.96
2022-09-10T10:49:52.010Z,20.16
2022-09-10T10:52:25.325Z,20.18
2022-09-10T10:55:08.749Z,20.16
2022-09-10T10:57:52.241Z,20.19
2022-09-10T11:00:20.163Z,20.14
2022-09-10T11:02:51.348Z,20.10
2022-09-10T11:05:27.861Z,20.13
2022-09-10T11:07:54.950Z,20.13
2022-09-10T11:10:27.024Z,20.08
2022-09-10T11:13:02.917Z,20.13
2022-09-10T11:15:33.800Z,20.12
2022-09-10T11:18:07.832Z,20.06
2022-09-10T11:20:41.992Z,20.16
2022-09-10T11:23:26.002Z,20.13
2022-09-10T11:25:57.749Z,19.95
2022-09-10T11:28:30.861Z,19.98
2022-09-10T11:31:02.373Z,20.00
2022-09-10T11:33:31.629Z,19.88
2022-09-10T11:36:08.656Z,20.03
2022-09-10T11:38:47.358Z,19.98
2022-09-10T11:41:18.829Z,20.10
2022-09-10T11:43:49.941Z,20.01
2022-09-10T11:46:20.714Z,20.01
2022-09-10T11:48:54.893Z,20.18
2022-09-10T11:51:28.828Z,20.25
2022-09-10T11:53:56.217Z,20.31
2022-09-10T11:56:35.403Z,19.74
2022-09-10T11:59:13.877Z,19.97
2022-09-10T12:01:56.122Z,20.01
2022-09-10T12:04:40.417Z,20.00
2022-09-10T12:07:21.613Z,19.60
2022-09-10T12:10:01.753Z,19.72
2022-09-10T12:12:35.344Z,19.88
2022-09-10T12:15:08.352Z,19.66
2022-09-10T12:17:38.858Z,19.55
2022-09-10T12:20:06.746Z,19.50
2022-09-10T12:22:39.864Z,19.47
2022-09-10T12:25:22.086Z,19.33
2022-09-10T12:27:53.098Z,19.29
2022-09-10T12:30:59.369Z,19.25
2022-09-10T12:33:51.377Z,19.29
2022-09-10T12:36:51.579Z,19.18
2022-09-10T12:39:23.869Z,19.26
2022-09-10T12:41:59.438Z,19.42
2022-09-10T12:44:54.175Z,19.51
2022-09-10T12:47:51.075Z,19.52
2022-09-10T12:50:27.680Z,19.67
2022-09-10T12:53:18.076Z,19.64
2022-09-10T12:55:59.307Z,19.63
2022-09-10T12:58:39.860Z,19.78
2022-09-10T13:01:18.368Z,19.84
2022-09-10T13:03:54.040Z,19.74
2022-09-10T13:06:35.221Z,19.59
2022-09-10T13:09:15.020Z,19.67
2022-09-10T13:11:47.091Z,19.64
2022-09-10T13:14:19.243Z,19.84
2022-09-10T13:16:45.860Z,20.05
2022-09-10T13:19:48.267Z,20.18
2022-09-10T13:22:54.464Z,20.31
2022-09-10T13:25:39.372Z,20.40
2022-09-10T13:28:43.397Z,20.42
2022-09-10T13:31:19.709Z,20.41
2022-09-10T13:34:24.488Z,20.14
2022-09-10T13:37:19.975Z,20.07
2022-09-10T13:40:21.461Z,19.82
2022-09-10T13:43:06.336Z,19.82
2022-09-10T13:45:38.610Z,19.61
2022-09-10T13:48:12.497Z,19.61
2022-09-10T13:50:46.959Z,19.56
2022-09-10T13:53:15.803Z,19.21
2022-09-10T13:55:51.601Z,19.14
2022-09-10T13:58:21.750Z,18.93
2022-09-10T14:00:52.099Z,18.70
2022-09-10T14:03:23.413Z,18.31
2022-09-10T14:05:53.056Z,18.10
2022-09-10T14:08:24.666Z,18.22
2022-09-10T14:10:56.439Z,18.39
2022-09-10T14:13:28.546Z,18.37
2022-09-10T14:15:58.579Z,17.73
2022-09-10T14:18:35.710Z,18.27
2022-09-10T14:21:02.927Z,18.20
2022-09-10T14:23:30.126Z,18.11
2022-09-10T14:26:20.218Z,18.16
2022-09-10T14:28:55.415Z,18.30
2022-09-10T14:31:35.440Z,18.24
2022-09-10T14:34:29.884Z,18.39
2022-09-10T14:36:56.833Z,18.42
2022-09-10T14:39:24.721Z,18.13
2022-09-10T14:42:11.138Z,18.55
2022-09-10T14:44:43.708Z,18.17
2022-09-10T14:47:22.198Z,18.61
2022-09-10T14:49:50.384Z,18.35
2022-09-10T14:52:17.028Z,18.58
2022-09-10T14:54:45.604Z,18.56
2022-09-10T14:57:16.226Z,18.73
2022-09-10T14:59:44.631Z,18.85
2022-09-10T15:02:16.699Z,18.90
2022-09-10T15:04:43.798Z,18.79
2022-09-10T15:07:12.125Z,18.81
2022-09-10T15:09:39.520Z,18.96
2022-09-10T15:12:08.937Z,19.06
2022-09-10T15:14:36.706Z,19.13
2022-09-10T15:17:03.896Z,19.21
2022-09-10T15:19:30.879Z,19.28
2022-09-10T15:21:57.867Z,19.45
2022-09-10T15:24:26.172Z,19.63
2022-09-10T15:26:52.982Z,19.75
2022-09-10T15:29:19.616Z,19.83
2022-09-10T15:31:46.156Z,19.83
2022-09-10T15:34:12.724Z,20.01
2022-09-10T15:36:40.409Z,19.80
2022-09-10T15:39:08.628Z,19.98
2022-09-10T15:41:41.437Z,19.99
2022-09-10T15:44:08.018Z,19.97
2022-09-10T15:46:34.598Z,19.95
2022-09-10T15:49:01.401Z,19.92
2022-09-10T15:51:27.927Z,19.93
2022-09-10T15:53:54.680Z,19.86
2022-09-10T15:56:23.041Z,19.81
2022-09-10T15:58:52.705Z,19.70
2022-09-10T16:01:19.279Z,19.61
2022-09-10T16:03:50.622Z,19.59
2022-09-10T16:06:19.057Z,19.32
2022-09-10T16:08:48.767Z,19.22
2022-09-10T16:11:15.687Z,19.13
2022-09-10T16:13:42.816Z,19.12
2022-09-10T16:16:14.907Z,19.22
2022-09-10T16:18:41.857Z,19.22
2022-09-10T16:21:10.519Z,19.25
2022-09-10T16:23:39.078Z,19.16
2022-09-10T16:26:07.398Z,19.18
2022-09-10T16:28:34.345Z,19.16
2022-09-10T16:31:13.734Z,19.08
2022-09-10T16:33:40.696Z,19.01
2022-09-10T16:36:08.073Z,18.89
2022-09-10T16:38:34.626Z,18.83
2022-09-10T16:41:01.264Z,18.81
2022-09-10T16:43:27.989Z,18.78
2022-09-10T16:45:54.482Z,18.77
2022-09-10T16:48:22.487Z,18.79
2022-09-10T16:50:49.095Z,18.76
2022-09-10T16:53:15.650Z,18.51
2022-09-10T16:55:42.152Z,18.54
2022-09-10T16:58:08.807Z,18.60
2022-09-10T17:00:36.629Z,18.47
2022-09-10T17:03:03.324Z,18.56
2022-09-10T17:05:31.182Z,18.57
2022-09-10T17:08:00.001Z,18.53
2022-09-10T17:10:26.501Z,18.54
2022-09-10T17:12:53.061Z,18.49
2022-09-10T17:15:19.542Z,18.50
2022-09-10T17:17:46.373Z,18.49
2022-09-10T17:20:12.863Z,18.50
2022-09-10T17:22:40.785Z,18.43
2022-09-10T17:25:08.033Z,18.51
2022-09-10T17:27:34.671Z,18.47
2022-09-10T17:30:01.245Z,18.47
2022-09-10T17:32:27.929Z,18.32
2022-09-10T17:34:54.900Z,18.33
2022-09-10T17:37:21.618Z,18.37
2022-09-10T17:39:49.851Z,18.30
2022-09-10T17:42:16.603Z,18.41
2022-09-10T17:44:43.314Z,18.35
2022-09-10T17:47:10.157Z,18.32
2022-09-10T17:49:36.927Z,18.30
2022-09-10T17:52:04.122Z,18.32
2022-09-10T17:54:31.253Z,18.32
2022-09-10T17:56:59.306Z,18.29
2022-09-10T17:59:25.804Z,18.16
2022-09-10T18:01:58.832Z,18.12
2022-09-10T18:04:28.609Z,18.01
2022-09-10T18:06:55.313Z,18.22
2022-09-10T18:09:21.872Z,18.08
2022-09-10T18:11:48.374Z,18.17
2022-09-10T18:14:17.598Z,18.00
2022-09-10T18:16:45.399Z,18.12
2022-09-10T18:19:14.978Z,17.80
2022-09-10T18:21:43.138Z,17.90
2022-09-10T18:24:11.172Z,17.76
2022-09-10T18:26:40.126Z,17.96
2022-09-10T18:29:09.721Z,17.88
2022-09-10T18:31:40.091Z,18.01
2022-09-10T18:34:10.417Z,17.91
2022-09-10T18:36:37.432Z,17.81
2022-09-10T18:39:06.091Z,17.31
2022-09-10T18:41:36.589Z,17.42
2022-09-10T18:44:04.941Z,17.81
2022-09-10T18:46:35.293Z,17.67
2022-09-10T18:49:04.046Z,17.72
2022-09-10T18:51:34.900Z,17.69
2022-09-10T18:54:01.965Z,17.48
2022-09-10T18:56:31.844Z,17.26
2022-09-10T18:58:59.846Z,17.23
2022-09-10T19:01:28.479Z,17.32
2022-09-10T19:03:55.146Z,17.61
2022-09-10T19:06:25.146Z,17.54
2022-09-10T19:08:53.370Z,17.40
2022-09-10T19:11:20.802Z,17.42
2022-09-10T19:13:49.212Z,17.01
2022-09-10T19:16:19.466Z,16.90
2022-09-10T19:18:50.382Z,17.49
2022-09-10T19:21:18.103Z,17.47
2022-09-10T19:23:49.138Z,17.46
2022-09-10T19:26:16.459Z,17.51
2022-09-10T19:28:43.686Z,17.30
2022-09-10T19:31:13.714Z,17.05
2022-09-10T19:33:40.641Z,17.20
2022-09-10T19:36:09.183Z,17.26
2022-09-10T19:38:47.845Z,17.25
2022-09-10T19:41:17.719Z,17.12
2022-09-10T19:43:47.804Z,17.30
2022-09-10T19:46:16.111Z,17.31
2022-09-10T19:48:46.425Z,17.05
2022-09-10T19:51:15.536Z,16.80
2022-09-10T19:53:43.096Z,17.17
2022-09-10T19:56:17.009Z,16.54
2022-09-10T19:58:50.278Z,16.82
2022-09-10T20:01:19.510Z,16.39
2022-09-10T20:03:47.304Z,17.11
2022-09-10T20:06:16.567Z,17.33
2022-09-10T20:08:43.266Z,17.15
2022-09-10T20:11:16.505Z,17.27
2022-09-10T20:13:43.121Z,17.26
2022-09-10T20:16:12.480Z,17.22
2022-09-10T20:18:39.443Z,16.81
2022-09-10T20:21:14.485Z,17.08
2022-09-10T20:23:43.133Z,16.80
2022-09-10T20:26:12.223Z,17.04
2022-09-10T20:28:39.384Z,17.18
2022-09-10T20:31:12.022Z,17.18
2022-09-10T20:33:41.394Z,16.96
2022-09-10T20:36:11.454Z,17.16
2022-09-10T20:38:38.896Z,17.18
2022-09-10T20:41:05.922Z,17.13
2022-09-10T20:43:32.496Z,16.86
2022-09-10T20:45:59.089Z,17.06
2022-09-10T20:48:27.294Z,17.03
2022-09-10T20:50:55.383Z,17.12
2022-09-10T20:53:22.929Z,16.08
2022-09-10T20:55:49.626Z,17.01
2022-09-10T20:58:21.952Z,17.17
2022-09-10T21:00:48.805Z,17.13
2022-09-10T21:03:15.580Z,17.06
2022-09-10T21:05:48.756Z,17.17
2022-09-10T21:08:15.888Z,17.06
2022-09-10T21:10:44.780Z,17.15
2022-09-10T21:13:11.600Z,17.21
2022-09-10T21:15:38.523Z,16.71
2022-09-10T21:18:05.261Z,17.00
2022-09-10T21:20:31.766Z,17.24
2022-09-10T21:22:59.654Z,17.28
2022-09-10T21:25:26.167Z,17.23
2022-09-10T21:27:52.943Z,17.24
2022-09-10T21:30:19.461Z,17.23
2022-09-10T21:32:45.992Z,17.23
2022-09-10T21:35:12.554Z,17.18
2022-09-10T21:37:39.162Z,17.29
2022-09-10T21:40:07.989Z,17.29
2022-09-10T21:42:34.742Z,17.23
2022-09-10T21:45:01.252Z,17.17
2022-09-10T21:47:27.806Z,17.19
2022-09-10T21:49:54.324Z,17.15
2022-09-10T21:52:20.956Z,17.05
2022-09-10T21:54:47.598Z,17.13
2022-09-10T21:57:15.657Z,17.19
2022-09-10T21:59:42.400Z,17.18
2022-09-10T22:02:09.148Z,17.19
2022-09-10T22:04:35.802Z,17.18
2022-09-10T22:07:05.147Z,17.17
2022-09-10T22:09:31.650Z,17.17
2022-09-10T22:11:58.236Z,17.18
2022-09-10T22:14:26.233Z,17.15
2022-09-10T22:16:53.155Z,17.12
2022-09-10T22:19:21.787Z,17.11
2022-09-10T22:21:48.512Z,17.12
2022-09-10T22:24:16.020Z,17.01
2022-09-10T22:26:44.467Z,16.99
2022-09-10T22:29:11.898Z,17.05
2022-09-10T22:31:40.043Z,17.04
2022-09-10T22:34:08.394Z,16.97
2022-09-10T22:36:39.090Z,16.90
2022-09-10T22:39:07.050Z,16.85
2022-09-10T22:41:35.214Z,16.96
2022-09-10T22:44:02.653Z,16.95
2022-09-10T22:46:29.961Z,16.96
2022-09-10T22:48:58.279Z,16.95
2022-09-10T22:51:27.104Z,16.83
2022-09-10T22:53:55.263Z,16.91
2022-09-10T22:56:23.395Z,16.88
2022-09-10T22:58:50.166Z,16.80
2022-09-10T23:01:18.197Z,16.82
2022-09-10T23:03:44.840Z,16.80
2022-09-10T23:06:14.777Z,16.74
2022-09-10T23:08:43.272Z,16.72
2022-09-10T23:11:12.232Z,16.40
2022-09-10T23:13:39.127Z,16.71
2022-09-10T23:16:10.351Z,16.71
2022-09-10T23:18:37.808Z,16.69
2022-09-10T23:21:04.594Z,16.67
2022-09-10T23:23:32.543Z,16.68
2022-09-10T23:26:03.647Z,16.60
2022-09-10T23:28:30.179Z,16.65
2022-09-10T23:31:06.017Z,16.64
2022-09-10T23:33:32.599Z,16.66
2022-09-10T23:35:59.083Z,16.65
2022-09-10T23:38:25.652Z,16.62
2022-09-10T23:40:53.511Z,16.61
2022-09-10T23:43:20.097Z,16.60
2022-09-10T23:45:46.599Z,16.60
2022-09-10T23:48:13.194Z,16.58
2022-09-10T23:50:39.674Z,16.56
2022-09-10T23:53:06.276Z,16.54
2022-09-10T23:55:32.745Z,16.57
2022-09-10T23:58:00.656Z,16.58
